Accueil
METAR-TAF:

METAR-TAF

Aéroports :

Aéroport Frans Kaisiepo

Biak, Indonésie

latitude: 01-11S, longitude: 136-07E, altitude: 11 m

Observation

Le bulletin a été fait il y a 27 minutes, à 15:00 UTC
Vent 2 kt de direction variable
Température 26°C
Humidité 94%
Pression 1010 hPa
Visibilité 10 km ou plus
Quelques nuages à une hauteur de 1500 ft
Nuages épars à une hauteur de 10000 ft

METAR: WABB 121500Z VRB02KT 9999 FEW015 SCT100 26/25 Q1010 NOSIG

Heure: 22:27 (15:27 UTC)

Prévision

Le bulletin a été fait il y a 4 heures et 27 minutes, à 11:00 UTC
Prévision valable du 12 à 12 UTC au 13 à 18 UTC
Vent kt de nord
Visibilité 10 km ou plus
Nuages épars à une hauteur de 1500 ft
Probabilité 30% :
Temporairement
du 12 à 20 UTC au 12 à 23 UTC
Vent 8 kt de ouest
Visibilité: 7000 m
pluie,

TAF: WABB 121100Z 1212/1318 00000KT 9999 SCT015 PROB30 TEMPO 1220/1223 27008KT 7000 RA

Observations et prévisions météorologiques de plus de 4000 aéroports (messages METAR et TAF).

Les stations disponibles sont représentées par des disques jaunes et rouges sur la carte.

Passer la souris dessus pour voir le nom de la station.

Cliquer dessus pour voir les observations et prévisions météorologiques.

Pour changer de carte: cliquez sur les boutons verts avec une croix noire pour zoomer, sur le bouton vert avec un tiret pour effectuer un zoom arrière, ou sur les flèches vertes pour les cartes adjacentes.


METAR-TAF: